createdAt,value
2022-08-07T00:02:39.659Z,100920.60
2022-08-07T00:05:15.067Z,100921.60
2022-08-07T00:07:50.570Z,100920.60
2022-08-07T00:10:33.617Z,100924.60
2022-08-07T00:13:17.368Z,100924.00
2022-08-07T00:16:00.837Z,100922.40
2022-08-07T00:18:36.927Z,100924.80
2022-08-07T00:21:57.202Z,100930.40
2022-08-07T00:24:08.087Z,100926.80
2022-08-07T00:26:58.836Z,100923.80
2022-08-07T00:29:37.317Z,100924.60
2022-08-07T00:32:14.233Z,100929.80
2022-08-07T00:34:49.419Z,100929.20
2022-08-07T00:37:25.073Z,100927.60
2022-08-07T00:40:03.590Z,100925.20
2022-08-07T00:42:39.434Z,100926.60
2022-08-07T00:45:16.203Z,100928.60
2022-08-07T00:48:07.993Z,100924.00
2022-08-07T00:50:51.069Z,100921.80
2022-08-07T00:53:26.369Z,100915.00
2022-08-07T00:56:03.515Z,100912.00
2022-08-07T00:58:37.769Z,100915.60
2022-08-07T01:01:12.214Z,100920.40
2022-08-07T01:03:55.739Z,100922.00
2022-08-07T01:06:34.484Z,100923.60
2022-08-07T01:09:10.076Z,100918.40
2022-08-07T01:12:29.019Z,100921.60
2022-08-07T01:15:01.772Z,100921.40
2022-08-07T01:17:40.078Z,100922.20
2022-08-07T01:20:17.828Z,100923.00
2022-08-07T01:23:00.789Z,100923.80
2022-08-07T01:25:55.451Z,100926.60
2022-08-07T01:28:31.571Z,100926.80
2022-08-07T01:31:07.934Z,100925.60
2022-08-07T01:33:55.974Z,100932.20
2022-08-07T01:36:36.411Z,100932.80
2022-08-07T01:39:20.233Z,100934.00
2022-08-07T01:42:38.328Z,100930.60
2022-08-07T01:45:09.739Z,100930.40
2022-08-07T01:48:21.519Z,100928.40
2022-08-07T01:50:47.484Z,100929.20
2022-08-07T01:54:08.738Z,100930.40
2022-08-07T01:56:28.872Z,100927.20
2022-08-07T01:59:15.698Z,100933.60
2022-08-07T02:02:04.529Z,100936.60
2022-08-07T02:04:52.603Z,100938.40
2022-08-07T02:07:50.081Z,100937.40
2022-08-07T02:10:31.819Z,100940.20
2022-08-07T02:13:08.735Z,100940.20
2022-08-07T02:15:54.460Z,100938.60
2022-08-07T02:18:33.905Z,100940.40
2022-08-07T02:21:16.031Z,100937.00
2022-08-07T02:23:50.948Z,100943.00
2022-08-07T02:26:32.632Z,100942.80
2022-08-07T02:29:13.939Z,100938.40
2022-08-07T02:31:49.499Z,100936.00
2022-08-07T02:34:25.113Z,100933.40
2022-08-07T02:37:02.259Z,100933.20
2022-08-07T02:40:02.469Z,100931.60
2022-08-07T02:42:40.825Z,100940.40
2022-08-07T02:46:00.551Z,100935.60
2022-08-07T02:48:15.981Z,100936.80
2022-08-07T02:50:56.617Z,100932.20
2022-08-07T02:53:38.538Z,100937.40
2022-08-07T02:56:23.159Z,100937.20
2022-08-07T02:59:05.705Z,100938.20
2022-08-07T03:01:43.174Z,100941.00
2022-08-07T03:04:25.231Z,100939.60
2022-08-07T03:07:03.389Z,100939.00
2022-08-07T03:09:49.366Z,100941.00
2022-08-07T03:12:30.679Z,100937.80
2022-08-07T03:15:12.712Z,100940.20
2022-08-07T03:18:04.697Z,100938.80
2022-08-07T03:20:41.890Z,100931.60
2022-08-07T03:23:19.415Z,100937.00
2022-08-07T03:25:58.380Z,100932.60
2022-08-07T03:28:39.692Z,100933.20
2022-08-07T03:31:23.690Z,100930.00
2022-08-07T03:34:04.493Z,100931.40
2022-08-07T03:36:42.860Z,100931.60
2022-08-07T03:39:46.213Z,100932.00
2022-08-07T03:42:15.639Z,100929.00
2022-08-07T03:44:53.505Z,100933.60
2022-08-07T03:47:29.585Z,100932.60
2022-08-07T03:50:28.449Z,100933.80
2022-08-07T03:53:04.612Z,100938.80
2022-08-07T03:55:57.993Z,100939.80
2022-08-07T03:59:07.097Z,100943.80
2022-08-07T04:01:36.965Z,100947.80
2022-08-07T04:04:17.257Z,100943.20
2022-08-07T04:06:53.215Z,100945.20
2022-08-07T04:09:44.796Z,100938.20
2022-08-07T04:12:26.647Z,100946.40
2022-08-07T04:15:04.981Z,100949.60
2022-08-07T04:18:31.964Z,100954.80
2022-08-07T04:20:38.225Z,100959.60
2022-08-07T04:23:43.501Z,100953.40
2022-08-07T04:26:28.699Z,100949.00
2022-08-07T04:29:03.552Z,100958.80
2022-08-07T04:32:03.192Z,100959.40
2022-08-07T04:34:37.740Z,100957.20
2022-08-07T04:37:20.247Z,100956.20
2022-08-07T04:52:04.386Z,100950.20
2022-08-07T04:54:50.609Z,100949.20
2022-08-07T04:58:15.788Z,100942.40
2022-08-07T05:00:43.149Z,100951.20
2022-08-07T05:04:00.271Z,100955.40
2022-08-07T05:06:43.645Z,100956.20
2022-08-07T05:09:45.346Z,100951.80
2022-08-07T05:12:30.495Z,100957.40
2022-08-07T05:15:21.882Z,100960.00
2022-08-07T05:18:08.859Z,100958.20
2022-08-07T05:20:50.252Z,100958.00
2022-08-07T05:23:35.471Z,100959.00
2022-08-07T05:26:24.147Z,100965.60
2022-08-07T05:29:10.378Z,100956.80
2022-08-07T05:31:52.685Z,100959.40
2022-08-07T05:34:31.921Z,100953.60
2022-08-07T05:37:10.363Z,100957.40
2022-08-07T05:40:05.361Z,100959.80
2022-08-07T05:42:55.559Z,100962.40
2022-08-07T05:45:47.508Z,100962.80
2022-08-07T05:48:26.374Z,100967.20
2022-08-07T05:51:03.537Z,100963.80
2022-08-07T05:54:13.912Z,100964.20
2022-08-07T05:56:35.460Z,100957.60
2022-08-07T05:59:16.590Z,100961.80
2022-08-07T06:01:53.181Z,100959.80
2022-08-07T06:04:29.906Z,100966.60
2022-08-07T06:07:06.977Z,100968.20
2022-08-07T06:09:44.912Z,100970.40
2022-08-07T06:12:38.950Z,100967.40
2022-08-07T06:15:20.015Z,100976.40
2022-08-07T06:17:57.171Z,100970.80
2022-08-07T06:20:50.521Z,100973.40
2022-08-07T06:24:37.429Z,100962.40
2022-08-07T06:26:25.440Z,100970.20
2022-08-07T06:29:04.270Z,100967.40
2022-08-07T06:31:49.685Z,100967.60
2022-08-07T06:34:30.608Z,100972.60
2022-08-07T06:37:05.436Z,100968.80
2022-08-07T06:40:16.774Z,100973.20
2022-08-07T06:42:41.771Z,100973.00
2022-08-07T06:45:22.305Z,100971.20
2022-08-07T06:48:06.030Z,100970.00
2022-08-07T06:50:47.724Z,100975.40
2022-08-07T06:55:28.185Z,100970.00
2022-08-07T06:56:48.464Z,100971.60
2022-08-07T07:00:11.858Z,100975.60
2022-08-07T07:02:53.678Z,100967.80
2022-08-07T07:06:02.026Z,100968.40
2022-08-07T07:08:26.606Z,100966.20
2022-08-07T07:11:01.489Z,100970.00
2022-08-07T07:13:57.833Z,100967.60
2022-08-07T07:16:49.758Z,100962.20
2022-08-07T07:19:55.976Z,100970.20
2022-08-07T07:22:39.886Z,100964.40
2022-08-07T07:26:35.721Z,100956.00
2022-08-07T07:28:42.825Z,100961.00
2022-08-07T07:31:24.954Z,100958.40
2022-08-07T07:34:11.752Z,100949.40
2022-08-07T07:36:53.942Z,100947.00
2022-08-07T07:39:45.386Z,100949.20
2022-08-07T07:42:22.234Z,100948.20
2022-08-07T07:45:11.237Z,100944.80
2022-08-07T07:47:53.577Z,100940.60
2022-08-07T07:50:38.453Z,100943.00
2022-08-07T07:53:23.266Z,100943.20
2022-08-07T07:56:03.350Z,100935.80
2022-08-07T07:58:41.157Z,100939.60
2022-08-07T08:02:03.857Z,100940.20
2022-08-07T08:04:14.308Z,100937.00
2022-08-07T08:06:52.324Z,100932.80
2022-08-07T08:09:30.337Z,100937.20
2022-08-07T08:12:05.228Z,100936.00
2022-08-07T08:14:42.350Z,100939.20
2022-08-07T08:17:57.669Z,100938.60
2022-08-07T08:20:26.211Z,100941.60
2022-08-07T08:23:26.431Z,100937.40
2022-08-07T08:26:24.046Z,100929.20
2022-08-07T08:29:02.648Z,100935.80
2022-08-07T08:31:59.193Z,100937.00
2022-08-07T08:34:42.528Z,100939.20
2022-08-07T08:37:59.518Z,100933.80
2022-08-07T08:40:29.116Z,100935.80
2022-08-07T08:43:16.201Z,100936.60
2022-08-07T08:46:08.097Z,100931.20
2022-08-07T08:48:51.400Z,100926.60
2022-08-07T08:52:00.819Z,100933.20
2022-08-07T08:54:50.985Z,100930.20
2022-08-07T08:57:36.201Z,100927.20
2022-08-07T09:00:14.814Z,100931.60
2022-08-07T09:03:01.017Z,100936.00
2022-08-07T09:05:52.025Z,100938.80
2022-08-07T09:08:49.423Z,100934.60
2022-08-07T09:11:50.469Z,100926.00
2022-08-07T09:14:41.943Z,100929.40
2022-08-07T09:17:58.973Z,100929.80
2022-08-07T09:20:58.132Z,100921.00
2022-08-07T09:24:32.971Z,100917.80
2022-08-07T09:27:03.661Z,100922.80
2022-08-07T09:30:08.979Z,100915.60
2022-08-07T09:33:05.666Z,100920.60
2022-08-07T09:36:05.995Z,100911.80
2022-08-07T09:38:53.763Z,100908.20
2022-08-07T09:41:58.645Z,100910.40
2022-08-07T09:47:26.193Z,100902.60
2022-08-07T09:48:03.954Z,100903.40
2022-08-07T09:51:14.535Z,100904.00
2022-08-07T09:54:04.865Z,100899.20
2022-08-07T09:57:46.663Z,100901.00
2022-08-07T10:00:31.848Z,100892.80
2022-08-07T10:04:07.261Z,100889.00
2022-08-07T10:07:53.305Z,100885.80
2022-08-07T10:11:16.994Z,100881.60
2022-08-07T10:14:12.490Z,100886.20
2022-08-07T10:17:16.474Z,100885.60
2022-08-07T10:20:15.553Z,100884.40
2022-08-07T10:24:06.733Z,100881.60
2022-08-07T10:26:56.453Z,100878.40
2022-08-07T10:30:07.247Z,100874.60
2022-08-07T10:33:13.117Z,100867.80
2022-08-07T10:36:13.016Z,100862.20
2022-08-07T10:39:05.432Z,100855.00
2022-08-07T10:41:54.567Z,100852.80
2022-08-07T10:44:47.398Z,100848.80
2022-08-07T10:47:52.969Z,100844.20
2022-08-07T10:50:35.514Z,100846.40
2022-08-07T10:53:21.221Z,100842.20
2022-08-07T10:56:19.687Z,100840.00
2022-08-07T10:59:21.299Z,100830.60
2022-08-07T11:02:12.299Z,100829.80
2022-08-07T11:05:44.820Z,100825.00
2022-08-07T11:08:39.007Z,100827.60
2022-08-07T11:11:23.135Z,100826.40
2022-08-07T11:14:45.762Z,100820.60
2022-08-07T11:17:09.105Z,100823.20
2022-08-07T11:19:54.217Z,100822.60
2022-08-07T11:22:44.020Z,100820.20
2022-08-07T11:25:36.134Z,100820.60
2022-08-07T11:28:34.185Z,100820.60
2022-08-07T11:31:29.158Z,100813.00
2022-08-07T11:34:21.742Z,100812.60
2022-08-07T11:37:15.226Z,100808.40
2022-08-07T11:40:09.142Z,100815.00
2022-08-07T11:43:05.401Z,100803.80
2022-08-07T11:46:11.117Z,100800.20
2022-08-07T11:49:51.155Z,100799.00
2022-08-07T11:52:47.480Z,100797.00
2022-08-07T11:56:09.494Z,100799.40
2022-08-07T11:59:02.340Z,100797.00
2022-08-07T12:01:59.927Z,100795.60
2022-08-07T12:04:53.848Z,100787.00
2022-08-07T12:07:38.939Z,100784.00
2022-08-07T12:10:26.565Z,100790.00
2022-08-07T12:13:11.665Z,100788.80
2022-08-07T12:16:06.194Z,100782.40
2022-08-07T12:18:50.716Z,100783.20
2022-08-07T12:22:36.902Z,100785.40
2022-08-07T12:25:07.737Z,100784.40
2022-08-07T12:28:09.905Z,100794.40
2022-08-07T12:30:53.320Z,100781.80
2022-08-07T12:33:56.147Z,100774.80
2022-08-07T12:36:33.337Z,100777.00
2022-08-07T12:39:43.216Z,100776.00
2022-08-07T12:42:06.843Z,100768.20
2022-08-07T12:44:47.290Z,100765.40
2022-08-07T12:47:31.785Z,100765.80
2022-08-07T12:50:38.632Z,100761.40
2022-08-07T12:53:22.328Z,100757.20
2022-08-07T12:56:20.346Z,100755.80
2022-08-07T12:58:57.932Z,100756.20
2022-08-07T13:01:56.999Z,100752.00
2022-08-07T13:05:02.317Z,100746.40
2022-08-07T13:08:14.250Z,100747.40
2022-08-07T13:11:18.730Z,100735.20
2022-08-07T13:14:04.626Z,100729.40
2022-08-07T13:16:50.860Z,100726.40
2022-08-07T13:19:50.581Z,100733.60
2022-08-07T13:22:32.403Z,100727.60
2022-08-07T13:25:15.355Z,100722.40
2022-08-07T13:28:18.316Z,100730.80
2022-08-07T13:31:06.459Z,100720.60
2022-08-07T13:34:32.828Z,100716.00
2022-08-07T13:36:59.338Z,100719.00
2022-08-07T13:40:35.033Z,100710.00
2022-08-07T13:43:06.720Z,100702.20
2022-08-07T13:46:21.530Z,100703.60
2022-08-07T13:48:59.420Z,100702.20
2022-08-07T13:52:22.548Z,100696.40
2022-08-07T13:54:35.603Z,100692.60
2022-08-07T13:57:23.888Z,100691.20
2022-08-07T14:00:02.209Z,100686.20
2022-08-07T14:02:54.132Z,100684.20
2022-08-07T14:05:37.960Z,100674.20
2022-08-07T14:08:16.081Z,100679.00
2022-08-07T14:11:14.807Z,100679.80
2022-08-07T14:13:55.306Z,100673.60
2022-08-07T14:16:35.511Z,100671.60
2022-08-07T14:20:42.904Z,100669.60
2022-08-07T14:22:34.821Z,100666.20
2022-08-07T14:25:17.650Z,100662.00
2022-08-07T14:28:10.349Z,100662.60
2022-08-07T14:30:52.372Z,100660.80
2022-08-07T14:33:45.136Z,100658.20
2022-08-07T14:36:21.132Z,100653.80
2022-08-07T14:39:01.840Z,100653.60
2022-08-07T14:42:20.736Z,100654.80
2022-08-07T14:44:37.323Z,100652.80
2022-08-07T14:47:14.609Z,100651.40
2022-08-07T14:52:50.185Z,100649.00
2022-08-07T14:55:29.532Z,100647.00
2022-08-07T14:58:07.311Z,100649.20
2022-08-07T15:01:21.332Z,100646.00
2022-08-07T15:04:05.611Z,100648.20
2022-08-07T15:06:47.850Z,100643.60
2022-08-07T15:10:00.063Z,100639.80
2022-08-07T15:12:25.810Z,100641.20
2022-08-07T15:15:21.178Z,100641.00
2022-08-07T15:18:04.130Z,100637.00
2022-08-07T15:20:54.905Z,100637.60
2022-08-07T15:26:45.090Z,100632.40
2022-08-07T15:30:09.567Z,100631.40
2022-08-07T15:32:17.692Z,100641.00
2022-08-07T15:36:00.563Z,100635.20
2022-08-07T15:38:17.736Z,100629.60
2022-08-07T15:41:24.052Z,100627.40
2022-08-07T15:44:12.516Z,100628.80
2022-08-07T15:46:52.888Z,100629.20
2022-08-07T15:50:04.793Z,100628.80
2022-08-07T15:52:31.615Z,100627.80
2022-08-07T15:55:12.744Z,100624.40
2022-08-07T15:58:00.160Z,100619.80
2022-08-07T16:00:40.091Z,100624.60
2022-08-07T16:03:47.080Z,100617.20
2022-08-07T16:06:17.694Z,100616.60
2022-08-07T16:08:52.960Z,100613.00
2022-08-07T16:12:00.095Z,100611.40
2022-08-07T16:15:55.641Z,100609.20
2022-08-07T16:18:49.602Z,100612.00
2022-08-07T16:22:01.443Z,100611.80
2022-08-07T16:24:34.720Z,100608.60
2022-08-07T16:27:20.811Z,100610.20
2022-08-07T16:30:30.080Z,100613.80
2022-08-07T16:34:01.549Z,100612.00
2022-08-07T16:36:31.180Z,100611.40
2022-08-07T16:39:49.043Z,100610.40
2022-08-07T16:42:55.886Z,100615.60
2022-08-07T16:46:41.079Z,100612.00
2022-08-07T16:50:27.053Z,100610.40
2022-08-07T16:52:52.427Z,100610.40
2022-08-07T16:55:47.872Z,100609.40
2022-08-07T16:59:02.376Z,100609.20
2022-08-07T17:01:49.163Z,100613.80
2022-08-07T17:04:51.023Z,100612.40
2022-08-07T17:07:55.382Z,100609.00
2022-08-07T17:10:42.093Z,100610.80
2022-08-07T17:14:18.266Z,100609.40
2022-08-07T17:16:56.063Z,100610.80
2022-08-07T17:20:02.710Z,100618.40
2022-08-07T17:22:49.601Z,100617.20
2022-08-07T17:25:47.618Z,100624.20
2022-08-07T17:28:38.303Z,100624.80
2022-08-07T17:31:22.428Z,100628.20
2022-08-07T17:34:34.199Z,100625.60
2022-08-07T17:38:06.615Z,100629.00
2022-08-07T17:40:30.603Z,100633.80
2022-08-07T17:43:18.026Z,100634.40
2022-08-07T17:46:13.868Z,100635.40
2022-08-07T17:49:08.849Z,100639.80
2022-08-07T17:52:00.692Z,100643.00
2022-08-07T17:54:54.136Z,100647.80
2022-08-07T17:57:58.801Z,100649.20
2022-08-07T18:00:49.362Z,100652.40
2022-08-07T18:04:04.005Z,100653.00
2022-08-07T18:06:43.266Z,100655.20
2022-08-07T18:10:06.502Z,100661.00
2022-08-07T18:12:33.701Z,100664.80
2022-08-07T18:15:19.239Z,100660.00
2022-08-07T18:18:45.764Z,100665.00
2022-08-07T18:21:37.088Z,100661.60
2022-08-07T18:24:09.006Z,100664.40
2022-08-07T18:27:39.268Z,100665.20
2022-08-07T18:30:32.389Z,100667.00
2022-08-07T18:33:56.038Z,100667.00
2022-08-07T18:36:53.707Z,100682.40
2022-08-07T18:40:06.589Z,100682.00
2022-08-07T18:43:03.844Z,100688.00
2022-08-07T18:46:24.472Z,100683.80
2022-08-07T18:50:31.322Z,100685.20
2022-08-07T18:52:38.305Z,100694.00
2022-08-07T18:55:40.662Z,100695.20
2022-08-07T18:58:42.760Z,100704.20
2022-08-07T19:02:19.772Z,100700.40
2022-08-07T19:04:56.256Z,100704.60
2022-08-07T19:07:52.919Z,100700.80
2022-08-07T19:10:52.180Z,100704.60
2022-08-07T19:13:57.466Z,100707.00
2022-08-07T19:17:04.958Z,100710.60
2022-08-07T19:19:55.100Z,100711.00
2022-08-07T19:22:44.825Z,100712.60
2022-08-07T19:26:21.726Z,100716.60
2022-08-07T19:29:02.893Z,100720.00
2022-08-07T19:31:59.660Z,100723.60
2022-08-07T19:34:33.958Z,100725.60
2022-08-07T19:37:18.455Z,100727.80
2022-08-07T19:40:03.460Z,100728.80
2022-08-07T19:42:44.737Z,100729.60
2022-08-07T19:46:05.695Z,100733.40
2022-08-07T19:48:42.123Z,100728.20
2022-08-07T19:51:51.282Z,100734.40
2022-08-07T19:54:32.174Z,100732.20
2022-08-07T19:58:02.673Z,100734.20
2022-08-07T20:00:28.237Z,100731.80
2022-08-07T20:03:34.785Z,100730.20
2022-08-07T20:06:06.068Z,100722.40
2022-08-07T20:08:50.391Z,100721.60
2022-08-07T20:12:22.031Z,100729.40
2022-08-07T20:14:31.700Z,100726.00
2022-08-07T20:17:10.671Z,100729.60
2022-08-07T20:19:47.477Z,100733.80
2022-08-07T20:22:34.177Z,100735.00
2022-08-07T20:25:19.751Z,100739.40
2022-08-07T20:28:03.333Z,100743.20
2022-08-07T20:30:46.853Z,100740.60
2022-08-07T20:33:38.005Z,100746.00
2022-08-07T20:36:17.035Z,100741.40
2022-08-07T20:39:00.823Z,100739.40
2022-08-07T20:41:40.981Z,100746.60
2022-08-07T20:44:16.851Z,100742.80
2022-08-07T20:47:05.612Z,100741.40
2022-08-07T20:49:58.517Z,100737.80
2022-08-07T20:52:50.534Z,100743.20
2022-08-07T20:55:27.288Z,100744.40
2022-08-07T20:58:12.008Z,100742.00
2022-08-07T21:01:01.794Z,100740.40
2022-08-07T21:03:45.093Z,100739.20
2022-08-07T21:06:33.248Z,100737.00
2022-08-07T21:09:14.398Z,100737.60
2022-08-07T21:11:53.250Z,100737.00
2022-08-07T21:14:40.291Z,100732.40
2022-08-07T21:18:06.043Z,100731.60
2022-08-07T21:20:33.324Z,100735.60
2022-08-07T21:23:22.835Z,100732.80
2022-08-07T21:26:16.594Z,100736.20
2022-08-07T21:28:58.198Z,100735.40
2022-08-07T21:32:41.855Z,100737.80
2022-08-07T21:34:52.740Z,100742.00
2022-08-07T21:37:57.344Z,100743.60
2022-08-07T21:40:42.811Z,100739.00
2022-08-07T21:43:47.174Z,100744.80
2022-08-07T21:46:31.673Z,100739.60
2022-08-07T21:49:17.029Z,100745.20
2022-08-07T21:52:09.049Z,100747.80
2022-08-07T21:55:00.921Z,100745.80
2022-08-07T21:57:55.094Z,100745.20
2022-08-07T22:00:31.077Z,100746.60
2022-08-07T22:03:30.962Z,100747.40
2022-08-07T22:06:29.985Z,100748.40
2022-08-07T22:09:12.495Z,100751.20
2022-08-07T22:12:04.846Z,100742.20
2022-08-07T22:14:59.549Z,100745.60
2022-08-07T22:17:42.758Z,100754.40
2022-08-07T22:20:31.482Z,100753.00
2022-08-07T22:23:22.015Z,100755.00
2022-08-07T22:26:08.178Z,100753.60
2022-08-07T22:28:53.108Z,100759.40
2022-08-07T22:31:59.224Z,100763.60
2022-08-07T22:34:53.707Z,100763.20
2022-08-07T22:38:03.582Z,100761.60
2022-08-07T22:40:58.037Z,100766.20
2022-08-07T22:43:42.242Z,100761.60
2022-08-07T22:47:11.422Z,100757.40
2022-08-07T22:50:33.800Z,100750.20
2022-08-07T22:54:07.558Z,100747.80
2022-08-07T22:56:48.290Z,100746.40
2022-08-07T22:59:52.474Z,100748.80
2022-08-07T23:02:58.575Z,100747.80
2022-08-07T23:06:16.830Z,100745.00
2022-08-07T23:10:00.796Z,100741.40
2022-08-07T23:12:32.743Z,100742.60
2022-08-07T23:16:05.639Z,100744.00
2022-08-07T23:18:38.171Z,100740.00
2022-08-07T23:21:36.600Z,100738.80
2022-08-07T23:24:38.697Z,100738.80
2022-08-07T23:28:22.236Z,100741.20
2022-08-07T23:31:06.686Z,100743.00
2022-08-07T23:34:37.323Z,100746.00
2022-08-07T23:38:01.410Z,100743.60
2022-08-07T23:40:43.597Z,100741.80
2022-08-07T23:43:51.398Z,100745.20
2022-08-07T23:46:58.605Z,100744.00
2022-08-07T23:50:07.776Z,100742.40
2022-08-07T23:53:19.108Z,100745.00
2022-08-07T23:56:14.746Z,100745.40
2022-08-07T23:59:10.645Z,100747.40
